To NAV CANADA Home Page Login to a new session Search on AWWS site Feedback and Comments Disclaimer Vers la page française équivalente Tips FAQ What's new on the site To the Forecasts and Observations / NOTAM section To "File a Flight Plan" website Publications and other links Update of the User's profile FIC Telephone Numbers My Weather Data Folder Route Weather Data Regional Weather Data Local Weather Data To the Forecasts and Observations / NOTAM section
Request Generated 03/23/2017 at 00:14:33 UTC . Weather information available at that time is displayed.

METAR/TAF

LYNN LAKE/MB    (show WxCam)

METAR CYYL 230000Z AUTO 14011G16KT 9SM OVC065 M03/M16 A2987 RMK
SLP152=
METAR CYYL 222300Z AUTO 13010G15KT 9SM OVC065 M03/M17 A2989 RMK
SLP157=
METAR CYYL 222200Z AUTO 13012KT 9SM BKN070 BKN089 M03/M17 A2992 RMK
SLP169=

TAF CYYL 221838Z 2219/2307 14012KT P6SM BKN090 BKN230
FM230300 13008KT P6SM -SN SCT012 OVC030 TEMPO 2303/2307 2SM -SN
VV012
RMK FCST BASED ON AUTO OBS. NXT FCST BY 230100Z=
Your time UTC time
Weather data provided by Environment Canada and NAV CANADA